Time;durP1;ratioP1;P1;durP2;ratioP2;P2;SDS_P1;SDS_P2;PMS_P1;PMS_P2;Temp;Humidity;BMP_temperature;BMP_pressure;BME280_temperature;BME280_humidity;BME280_pressure;Samples;Min_cycle;Max_cycle;Signal;HPM_P1;HPM_P2
2022/10/13 00:00:50;;;;;;;7.93;3.33;;;8.80;99.90;;;;;;5044597;28;20214;-46
2022/10/13 00:03:17;;;;;;;7.17;3.63;;;8.80;99.90;;;;;;5030503;28;20210;-52
2022/10/13 00:05:48;;;;;;;9.17;3.67;;;8.80;99.90;;;;;;5037559;28;20199;-46
2022/10/13 00:08:17;;;;;;;9.47;3.30;;;8.80;99.90;;;;;;5023611;28;20214;-49
2022/10/13 00:10:47;;;;;;;8.07;3.50;;;8.80;99.90;;;;;;5033202;28;20730;-47
2022/10/13 00:13:14;;;;;;;8.03;3.30;;;8.80;99.90;;;;;;5028030;28;20195;-49
2022/10/13 00:15:44;;;;;;;6.93;3.60;;;8.80;99.90;;;;;;5043819;28;20227;-47
2022/10/13 00:18:10;;;;;;;6.93;3.17;;;8.80;99.90;;;;;;5038496;28;20266;-51
2022/10/13 00:20:41;;;;;;;8.37;2.73;;;8.80;99.90;;;;;;5041459;28;20699;-51
2022/10/13 00:23:08;;;;;;;6.47;2.90;;;8.80;99.90;;;;;;5026300;28;20207;-49
2022/10/13 00:25:35;;;;;;;9.00;3.13;;;8.80;99.90;;;;;;5038542;28;20928;-48
2022/10/13 00:28:03;;;;;;;5.37;3.07;;;8.80;99.90;;;;;;5041819;28;20660;-45
2022/10/13 00:30:34;;;;;;;6.30;3.60;;;8.80;99.90;;;;;;5036071;28;20215;-47
2022/10/13 00:33:00;;;;;;;4.63;3.13;;;8.80;99.90;;;;;;5041326;28;20199;-49
2022/10/13 00:35:27;;;;;;;8.93;4.03;;;8.80;99.90;;;;;;5027039;28;20223;-49
2022/10/13 00:37:53;;;;;;;5.60;3.00;;;8.80;99.90;;;;;;5024659;28;20207;-47
2022/10/13 00:40:20;;;;;;;9.33;3.30;;;8.80;99.90;;;;;;5036427;28;20210;-47
2022/10/13 00:42:47;;;;;;;8.53;3.50;;;8.80;99.90;;;;;;5041111;28;20203;-51
2022/10/13 00:45:23;;;;;;;7.20;3.50;;;8.80;99.90;;;;;;5029927;28;20305;-47
2022/10/13 00:47:55;;;;;;;5.40;3.00;;;8.80;99.90;;;;;;5034493;28;20195;-50
2022/10/13 00:50:25;;;;;;;10.00;3.17;;;8.80;99.90;;;;;;5036325;28;20241;-45
2022/10/13 00:52:56;;;;;;;8.73;3.63;;;8.80;99.90;;;;;;5032182;28;20282;-50
2022/10/13 00:55:29;;;;;;;8.37;3.40;;;8.80;99.90;;;;;;5038197;28;20235;-49
2022/10/13 00:57:59;;;;;;;10.37;3.00;;;8.80;99.90;;;;;;5036564;28;20293;-50
2022/10/13 01:00:32;;;;;;;8.67;3.40;;;8.80;99.90;;;;;;5038622;28;20250;-47
2022/10/13 01:03:00;;;;;;;6.37;3.40;;;8.80;99.90;;;;;;5040385;28;20192;-49
2022/10/13 01:05:26;;;;;;;5.10;3.27;;;8.80;99.90;;;;;;5036888;28;20195;-47
2022/10/13 01:07:56;;;;;;;8.67;2.80;;;8.80;99.90;;;;;;5041788;28;20203;-47
2022/10/13 01:10:35;;;;;;;6.33;3.10;;;8.80;99.90;;;;;;5027763;28;20324;-46
2022/10/13 01:13:11;;;;;;;6.37;2.97;;;8.70;99.90;;;;;;5033620;28;20221;-51
2022/10/13 01:15:45;;;;;;;5.53;3.40;;;8.70;99.90;;;;;;5038580;28;21072;-45
2022/10/13 01:18:21;;;;;;;7.23;2.50;;;8.70;99.90;;;;;;5040101;28;20218;-46
2022/10/13 01:21:04;;;;;;;5.33;3.00;;;8.70;99.90;;;;;;5041243;28;20214;-47
2022/10/13 01:24:00;;;;;;;7.20;2.97;;;8.60;99.90;;;;;;5030539;28;20665;-48
2022/10/13 01:26:50;;;;;;;5.83;3.07;;;8.60;99.90;;;;;;5024016;28;20204;-45
2022/10/13 01:29:46;;;;;;;6.10;3.00;;;8.50;99.90;;;;;;5032722;28;20202;-47
2022/10/13 01:32:23;;;;;;;5.03;2.70;;;8.40;99.90;;;;;;5027096;28;20225;-50
2022/10/13 01:34:55;;;;;;;6.43;2.47;;;8.40;99.90;;;;;;5032770;28;20207;-51
2022/10/13 01:37:31;;;;;;;8.93;3.40;;;8.30;99.90;;;;;;5035690;28;20237;-47
2022/10/13 01:40:04;;;;;;;11.73;2.87;;;8.30;99.90;;;;;;5025831;28;20584;-47
2022/10/13 01:42:40;;;;;;;5.60;2.60;;;8.30;99.90;;;;;;5036986;28;20210;-48
2022/10/13 01:45:17;;;;;;;5.73;2.93;;;8.20;99.90;;;;;;5034685;28;20184;-49
2022/10/13 01:47:46;;;;;;;7.03;3.00;;;8.20;99.90;;;;;;5032819;28;20321;-48
2022/10/13 01:50:15;;;;;;;7.73;3.20;;;8.10;99.90;;;;;;5035948;28;20298;-47
2022/10/13 01:52:43;;;;;;;5.77;2.97;;;8.00;99.90;;;;;;5031061;28;20214;-45
2022/10/13 01:55:12;;;;;;;6.07;3.47;;;8.00;99.90;;;;;;5023774;28;20204;-46
2022/10/13 01:57:41;;;;;;;7.90;3.60;;;7.90;99.90;;;;;;5020401;28;20235;-44
2022/10/13 02:00:12;;;;;;;4.47;3.20;;;7.80;99.90;;;;;;5032079;28;20210;-50
2022/10/13 02:02:46;;;;;;;4.77;3.03;;;7.80;99.90;;;;;;5037525;28;20230;-47
2022/10/13 02:05:25;;;;;;;4.67;3.23;;;7.70;99.90;;;;;;5030208;28;20188;-48
2022/10/13 02:07:56;;;;;;;7.87;2.93;;;7.80;99.90;;;;;;5033024;28;20699;-49
2022/10/13 02:10:31;;;;;;;10.53;3.07;;;7.80;99.90;;;;;;5042315;28;20241;-47
2022/10/13 02:13:01;;;;;;;9.67;3.20;;;7.80;99.90;;;;;;5023663;28;20703;-48
2022/10/13 02:15:32;;;;;;;5.97;3.00;;;7.70;99.90;;;;;;5037919;28;20187;-51
2022/10/13 02:18:01;;;;;;;3.40;2.90;;;7.70;99.90;;;;;;5036509;28;20207;-50
2022/10/13 02:20:31;;;;;;;7.47;3.03;;;7.60;99.90;;;;;;5029952;28;20272;-48
2022/10/13 02:23:03;;;;;;;6.10;3.00;;;7.60;99.90;;;;;;5030046;28;20687;-42
2022/10/13 02:25:31;;;;;;;4.50;2.83;;;7.60;99.90;;;;;;5038593;28;20200;-42
2022/10/13 02:28:01;;;;;;;8.23;3.77;;;7.60;99.90;;;;;;5028092;28;20199;-44
2022/10/13 02:30:32;;;;;;;6.60;3.43;;;7.50;99.90;;;;;;5034211;28;20214;-43
2022/10/13 02:32:59;;;;;;;5.97;2.90;;;7.50;99.90;;;;;;5032303;28;20195;-44
2022/10/13 02:35:26;;;;;;;8.23;2.80;;;7.40;99.90;;;;;;5042788;28;21564;-43
2022/10/13 02:37:55;;;;;;;9.23;3.20;;;7.30;99.90;;;;;;5038476;28;20230;-42
2022/10/13 02:40:22;;;;;;;3.93;2.70;;;7.30;99.90;;;;;;5036662;28;20844;-43
2022/10/13 02:42:48;;;;;;;4.87;3.20;;;7.30;99.90;;;;;;5020626;28;20219;-43
2022/10/13 02:45:16;;;;;;;8.20;3.37;;;7.30;99.90;;;;;;5044214;28;20188;-43
2022/10/13 02:47:42;;;;;;;7.40;3.60;;;7.30;99.90;;;;;;5032883;28;20203;-42
2022/10/13 02:50:09;;;;;;;4.73;3.10;;;7.20;99.90;;;;;;5045193;28;20211;-42
2022/10/13 02:52:36;;;;;;;7.10;3.67;;;7.20;99.90;;;;;;5034353;28;20195;-42
2022/10/13 02:55:05;;;;;;;7.27;3.17;;;7.20;99.90;;;;;;5036306;28;20208;-44
2022/10/13 02:57:32;;;;;;;8.47;3.50;;;7.20;99.90;;;;;;5031560;28;20223;-42
2022/10/13 02:59:59;;;;;;;11.57;4.30;;;7.20;99.90;;;;;;5024528;28;20223;-42
2022/10/13 03:02:29;;;;;;;7.13;3.97;;;7.30;99.90;;;;;;5029432;28;20790;-46
2022/10/13 03:04:55;;;;;;;9.60;3.87;;;7.30;99.90;;;;;;5033421;28;20202;-43
2022/10/13 03:07:22;;;;;;;7.00;3.60;;;7.30;99.90;;;;;;5035605;28;20220;-46
2022/10/13 03:09:49;;;;;;;5.33;3.20;;;7.40;99.90;;;;;;5032575;28;20221;-42
2022/10/13 03:12:17;;;;;;;5.90;3.40;;;7.40;99.90;;;;;;5032236;28;20224;-42
2022/10/13 03:14:43;;;;;;;6.50;3.20;;;7.40;99.90;;;;;;5022259;28;20210;-42
2022/10/13 03:17:10;;;;;;;6.03;3.20;;;7.50;99.90;;;;;;5042375;28;20230;-42
2022/10/13 03:19:37;;;;;;;5.40;4.00;;;7.50;99.90;;;;;;5032655;28;20639;-44
2022/10/13 03:22:03;;;;;;;9.20;3.40;;;7.50;99.90;;;;;;5042246;28;20212;-42
2022/10/13 03:24:31;;;;;;;7.40;4.27;;;7.50;99.90;;;;;;5032145;28;20609;-44
2022/10/13 03:26:57;;;;;;;4.97;3.53;;;7.50;99.90;;;;;;5037155;28;20199;-42
2022/10/13 03:29:25;;;;;;;7.37;3.90;;;7.50;99.90;;;;;;5027513;28;20211;-42
2022/10/13 03:31:52;;;;;;;7.93;3.87;;;7.60;99.90;;;;;;5032943;28;20916;-43
2022/10/13 03:34:19;;;;;;;6.20;3.40;;;7.60;99.90;;;;;;5031305;28;20192;-42
2022/10/13 03:36:46;;;;;;;7.33;4.03;;;7.70;99.90;;;;;;5034488;28;20586;-42
2022/10/13 03:39:13;;;;;;;6.80;3.93;;;7.70;99.90;;;;;;5024682;28;20223;-42
2022/10/13 03:41:39;;;;;;;7.00;3.87;;;7.70;99.90;;;;;;5021659;28;20203;-44
2022/10/13 03:44:06;;;;;;;6.00;3.40;;;7.70;99.90;;;;;;5032303;28;20199;-45
2022/10/13 03:46:34;;;;;;;7.53;3.60;;;7.70;99.90;;;;;;5025706;28;20265;-42
2022/10/13 03:49:01;;;;;;;4.30;3.70;;;7.60;99.90;;;;;;5035248;28;20223;-43
2022/10/13 03:51:29;;;;;;;7.97;3.90;;;7.60;99.90;;;;;;5021189;28;20207;-44
2022/10/13 03:53:56;;;;;;;9.27;3.83;;;7.60;99.90;;;;;;5029287;28;20210;-42
2022/10/13 03:56:26;;;;;;;9.20;4.23;;;7.60;99.90;;;;;;5026708;28;20206;-44
2022/10/13 03:58:54;;;;;;;4.03;3.57;;;7.60;99.90;;;;;;5035479;28;20215;-42
2022/10/13 04:01:23;;;;;;;6.60;3.67;;;7.60;99.90;;;;;;5024002;28;20210;-43
2022/10/13 04:03:52;;;;;;;8.23;4.50;;;7.60;99.90;;;;;;5034015;28;20688;-42
2022/10/13 04:06:19;;;;;;;5.13;3.70;;;7.70;99.90;;;;;;5029900;28;20199;-47
2022/10/13 04:08:46;;;;;;;9.47;3.93;;;7.70;99.90;;;;;;5034216;28;20199;-42
2022/10/13 04:11:14;;;;;;;8.33;4.33;;;7.70;99.90;;;;;;5031606;28;20207;-42
2022/10/13 04:13:43;;;;;;;6.50;4.47;;;7.70;99.90;;;;;;5032943;28;20191;-42
2022/10/13 04:16:14;;;;;;;6.97;4.23;;;7.70;99.90;;;;;;5033595;28;20806;-43
2022/10/13 04:18:41;;;;;;;7.00;3.83;;;7.70;99.90;;;;;;5034395;28;20194;-47
2022/10/13 04:21:11;;;;;;;9.77;4.30;;;7.70;99.90;;;;;;5043029;28;20207;-41
2022/10/13 04:23:38;;;;;;;5.77;4.10;;;7.70;99.90;;;;;;5032282;28;20196;-42
2022/10/13 04:26:06;;;;;;;8.33;4.10;;;7.70;99.90;;;;;;5026557;28;20206;-43
2022/10/13 04:28:34;;;;;;;4.50;4.10;;;7.70;99.90;;;;;;5023570;28;20195;-44
2022/10/13 04:31:01;;;;;;;7.17;4.37;;;7.80;99.90;;;;;;5037541;28;20290;-44
2022/10/13 04:33:28;;;;;;;14.70;5.10;;;7.80;99.90;;;;;;5023798;28;20209;-41
2022/10/13 04:35:55;;;;;;;6.43;4.80;;;7.80;99.90;;;;;;5043261;28;20195;-44
2022/10/13 04:38:23;;;;;;;8.47;4.27;;;7.80;99.90;;;;;;5035609;28;20302;-46
2022/10/13 04:40:50;;;;;;;9.87;4.93;;;7.80;99.90;;;;;;5039863;28;20223;-41
2022/10/13 04:43:16;;;;;;;9.33;4.60;;;7.80;99.90;;;;;;5032129;28;20198;-42
2022/10/13 04:45:43;;;;;;;10.13;4.87;;;7.80;99.90;;;;;;5034323;28;20935;-42
2022/10/13 04:48:10;;;;;;;7.27;4.37;;;7.80;99.90;;;;;;5026424;28;20195;-42
2022/10/13 04:50:36;;;;;;;8.57;4.70;;;7.80;99.90;;;;;;5040469;28;20211;-43
2022/10/13 04:53:03;;;;;;;10.97;4.63;;;7.80;99.90;;;;;;5035650;28;20242;-42
2022/10/13 04:55:31;;;;;;;7.83;4.40;;;7.80;99.90;;;;;;5038887;28;20186;-43
2022/10/13 04:57:58;;;;;;;12.13;4.50;;;7.80;99.90;;;;;;5025787;28;20226;-43
2022/10/13 05:00:25;;;;;;;9.97;5.07;;;7.80;99.90;;;;;;5029519;28;20591;-43
2022/10/13 05:02:52;;;;;;;8.73;5.57;;;7.80;99.90;;;;;;5043447;28;20222;-42
2022/10/13 05:05:18;;;;;;;8.73;5.57;;;7.80;99.90;;;;;;5025428;28;20215;-42
2022/10/13 05:07:45;;;;;;;5.77;4.53;;;7.80;99.90;;;;;;5037471;28;20203;-42
2022/10/13 05:10:12;;;;;;;8.37;4.57;;;7.80;99.90;;;;;;5035281;28;20719;-42
2022/10/13 05:12:40;;;;;;;7.93;5.00;;;7.80;99.90;;;;;;5040449;28;20202;-43
2022/10/13 05:15:08;;;;;;;7.27;4.60;;;7.80;99.90;;;;;;5032696;28;20694;-42
2022/10/13 05:17:34;;;;;;;6.00;4.60;;;7.70;99.90;;;;;;5035316;28;20215;-42
2022/10/13 05:20:06;;;;;;;12.63;4.27;;;7.70;99.90;;;;;;5026899;28;20234;-43
2022/10/13 05:22:33;;;;;;;6.83;4.60;;;7.70;99.90;;;;;;5033360;28;20321;-42
2022/10/13 05:25:00;;;;;;;7.67;4.73;;;7.70;99.90;;;;;;5035379;28;20222;-41
2022/10/13 05:27:26;;;;;;;8.50;4.47;;;7.70;99.90;;;;;;5038771;28;20271;-44
2022/10/13 05:29:54;;;;;;;9.50;4.80;;;7.70;99.90;;;;;;5037515;28;20227;-41
2022/10/13 05:32:21;;;;;;;7.93;4.77;;;7.80;99.90;;;;;;5035644;28;20207;-42
2022/10/13 05:34:48;;;;;;;12.50;5.43;;;7.80;99.90;;;;;;5025311;28;20203;-45
2022/10/13 05:37:17;;;;;;;7.67;5.13;;;7.80;99.90;;;;;;5041149;28;20298;-42
2022/10/13 05:39:44;;;;;;;9.63;5.13;;;7.80;99.90;;;;;;5036836;28;20238;-42
2022/10/13 05:42:11;;;;;;;7.47;4.90;;;7.80;99.90;;;;;;5043497;28;20278;-46
2022/10/13 05:44:37;;;;;;;11.77;5.33;;;7.80;99.90;;;;;;5032323;28;20203;-42
2022/10/13 05:47:06;;;;;;;12.03;4.87;;;7.80;99.90;;;;;;5031296;28;20204;-42
2022/10/13 05:49:35;;;;;;;7.90;5.00;;;7.80;99.90;;;;;;5028193;28;20309;-44
2022/10/13 05:52:04;;;;;;;8.30;5.10;;;7.80;99.90;;;;;;5042533;28;20207;-47
2022/10/13 05:54:36;;;;;;;9.90;5.30;;;7.90;99.90;;;;;;5037026;28;20198;-44
2022/10/13 05:57:06;;;;;;;8.30;5.00;;;7.90;99.90;;;;;;5044639;28;20226;-42
2022/10/13 05:59:39;;;;;;;7.87;5.20;;;7.90;99.90;;;;;;5039882;28;20573;-44
2022/10/13 06:02:10;;;;;;;9.63;5.87;;;7.90;99.90;;;;;;5040188;28;20207;-42
2022/10/13 06:04:41;;;;;;;17.80;6.53;;;8.00;99.90;;;;;;5036319;28;21036;-42
2022/10/13 06:07:09;;;;;;;13.60;5.47;;;8.00;99.90;;;;;;5027331;28;20215;-41
2022/10/13 06:09:38;;;;;;;11.13;5.77;;;8.00;99.90;;;;;;5032518;28;20216;-42
2022/10/13 06:12:05;;;;;;;9.13;5.93;;;8.00;99.90;;;;;;5041328;28;20191;-44
2022/10/13 06:14:32;;;;;;;8.77;5.83;;;8.00;99.90;;;;;;5031959;28;20253;-42
2022/10/13 06:17:00;;;;;;;7.97;5.90;;;8.00;99.90;;;;;;5036348;28;20310;-43
2022/10/13 06:19:28;;;;;;;8.87;5.43;;;8.00;99.90;;;;;;5035476;28;20219;-42
2022/10/13 06:21:55;;;;;;;9.53;5.90;;;8.10;99.90;;;;;;5021745;28;20218;-42
2022/10/13 06:24:21;;;;;;;9.87;5.77;;;8.10;99.90;;;;;;5038484;28;20195;-43
2022/10/13 06:26:49;;;;;;;9.27;6.03;;;8.10;99.90;;;;;;5038569;28;20212;-45
2022/10/13 06:29:15;;;;;;;10.40;5.77;;;8.10;99.90;;;;;;5032997;28;20220;-44
2022/10/13 06:31:42;;;;;;;13.80;5.90;;;8.10;99.90;;;;;;5034807;28;20475;-42
2022/10/13 06:34:09;;;;;;;13.07;5.80;;;8.20;99.90;;;;;;5031000;28;20298;-43
2022/10/13 06:36:37;;;;;;;7.33;5.33;;;8.20;99.90;;;;;;5036667;28;20197;-42
2022/10/13 06:39:04;;;;;;;10.07;6.17;;;8.20;99.90;;;;;;5023493;28;20234;-42
2022/10/13 06:41:31;;;;;;;12.23;5.83;;;8.20;99.90;;;;;;5029233;28;20973;-42
2022/10/13 06:43:58;;;;;;;7.87;6.07;;;8.20;99.90;;;;;;5033030;28;20235;-44
2022/10/13 06:46:24;;;;;;;10.57;6.20;;;8.30;99.90;;;;;;5042180;28;20664;-42
2022/10/13 06:48:51;;;;;;;10.33;6.00;;;8.30;99.90;;;;;;5034117;28;20195;-43
2022/10/13 06:51:21;;;;;;;8.80;6.33;;;8.30;99.90;;;;;;5038741;28;20202;-42
2022/10/13 06:53:50;;;;;;;10.97;6.23;;;8.30;99.90;;;;;;5021794;28;20359;-42
2022/10/13 06:56:22;;;;;;;14.87;6.70;;;8.40;99.90;;;;;;5040325;28;20302;-44
2022/10/13 06:58:48;;;;;;;12.53;6.40;;;8.40;99.90;;;;;;5030337;28;20226;-46
2022/10/13 07:01:15;;;;;;;11.20;6.43;;;8.50;99.90;;;;;;5030147;28;20187;-42
2022/10/13 07:03:42;;;;;;;11.90;5.47;;;8.50;99.90;;;;;;5030721;28;20214;-43
2022/10/13 07:06:09;;;;;;;11.90;7.53;;;8.60;99.90;;;;;;5033029;28;20204;-42
2022/10/13 07:08:36;;;;;;;13.00;7.10;;;8.60;99.90;;;;;;5026031;28;20771;-44
2022/10/13 07:11:08;;;;;;;10.37;6.43;;;8.70;99.90;;;;;;5041957;28;20215;-44
2022/10/13 07:13:35;;;;;;;14.37;7.97;;;8.80;99.90;;;;;;5037737;28;20204;-46
2022/10/13 07:16:04;;;;;;;13.93;6.63;;;8.80;99.90;;;;;;5043170;28;20975;-42
2022/10/13 07:18:30;;;;;;;11.67;6.97;;;8.90;99.90;;;;;;5038640;28;20273;-44
2022/10/13 07:20:59;;;;;;;12.20;7.13;;;8.90;99.90;;;;;;5041342;28;20227;-42
2022/10/13 07:23:26;;;;;;;10.77;6.83;;;9.00;99.90;;;;;;5044060;28;20203;-46
2022/10/13 07:25:55;;;;;;;14.33;6.63;;;9.00;99.90;;;;;;5018252;28;20214;-42
2022/10/13 07:28:23;;;;;;;14.17;7.20;;;9.10;99.90;;;;;;5027221;28;20204;-45
2022/10/13 07:30:50;;;;;;;13.70;7.47;;;9.10;99.90;;;;;;5033367;28;21853;-46
2022/10/13 07:33:16;;;;;;;9.93;7.53;;;9.20;99.90;;;;;;5027759;28;20195;-42
2022/10/13 07:35:43;;;;;;;14.07;8.00;;;9.30;99.90;;;;;;5038493;28;20210;-44
2022/10/13 07:38:11;;;;;;;12.77;6.80;;;9.40;99.90;;;;;;5025246;28;20667;-43
2022/10/13 07:40:38;;;;;;;12.37;7.27;;;9.40;99.90;;;;;;5026326;28;20223;-43
2022/10/13 07:43:05;;;;;;;14.97;6.90;;;9.50;99.90;;;;;;5031989;28;20971;-42
2022/10/13 07:45:33;;;;;;;12.60;7.10;;;9.50;99.90;;;;;;5035972;28;20572;-45
2022/10/13 07:48:00;;;;;;;12.60;7.30;;;9.50;99.90;;;;;;5038343;28;20934;-43
2022/10/13 07:50:26;;;;;;;11.87;7.57;;;9.60;99.90;;;;;;5029128;28;20226;-42
2022/10/13 07:52:53;;;;;;;12.73;7.00;;;9.60;99.90;;;;;;5029308;28;20834;-43
2022/10/13 07:55:20;;;;;;;15.10;7.17;;;9.70;99.90;;;;;;5020305;28;20230;-45
2022/10/13 07:57:46;;;;;;;12.23;7.37;;;9.80;99.90;;;;;;5034604;28;20219;-46
2022/10/13 08:00:13;;;;;;;15.00;7.60;;;9.80;99.90;;;;;;5026365;28;20226;-43
2022/10/13 08:02:42;;;;;;;15.13;7.60;;;9.80;99.90;;;;;;5033976;28;20196;-42
2022/10/13 08:05:09;;;;;;;13.80;6.93;;;9.90;99.90;;;;;;5023452;28;20227;-43
2022/10/13 08:07:36;;;;;;;9.13;7.67;;;9.90;99.90;;;;;;5035037;28;20423;-43
2022/10/13 08:10:04;;;;;;;13.53;8.37;;;10.00;99.90;;;;;;5034097;28;20222;-43
2022/10/13 08:12:31;;;;;;;13.33;8.00;;;10.10;99.90;;;;;;5017837;28;20208;-43
2022/10/13 08:14:57;;;;;;;13.43;7.40;;;10.10;99.90;;;;;;5025575;28;20282;-42
2022/10/13 08:17:24;;;;;;;9.90;7.63;;;10.20;99.90;;;;;;5027785;28;20288;-44
2022/10/13 08:19:53;;;;;;;14.93;7.67;;;10.20;99.90;;;;;;5026675;28;20219;-45
2022/10/13 08:22:24;;;;;;;13.43;8.43;;;10.30;99.90;;;;;;5031052;28;20215;-45
2022/10/13 08:24:52;;;;;;;14.57;8.13;;;10.40;99.90;;;;;;5029374;28;20206;-46
2022/10/13 08:27:21;;;;;;;17.70;8.87;;;10.40;99.90;;;;;;5022114;28;20218;-44
2022/10/13 08:29:49;;;;;;;13.53;9.00;;;10.50;99.90;;;;;;5033528;28;20211;-43
2022/10/13 08:32:19;;;;;;;14.20;8.67;;;10.50;99.90;;;;;;5026309;28;20212;-44
2022/10/13 08:34:46;;;;;;;16.33;8.33;;;10.60;99.90;;;;;;5030308;28;20276;-44
2022/10/13 08:37:16;;;;;;;15.80;8.53;;;10.70;99.90;;;;;;5032280;28;20668;-44
2022/10/13 08:39:44;;;;;;;16.27;8.63;;;10.80;99.90;;;;;;5029594;28;20306;-43
2022/10/13 08:42:16;;;;;;;16.13;8.40;;;10.90;99.90;;;;;;5019111;28;20207;-47
2022/10/13 08:44:48;;;;;;;14.10;8.33;;;10.90;99.90;;;;;;5030638;28;20265;-43
2022/10/13 08:47:33;;;;;;;12.87;9.20;;;11.00;99.90;;;;;;5031093;28;20215;-42
2022/10/13 08:50:03;;;;;;;12.40;9.10;;;11.00;99.90;;;;;;5029852;28;20230;-43
2022/10/13 08:52:45;;;;;;;20.20;9.00;;;11.10;99.90;;;;;;5038301;28;20687;-45
2022/10/13 08:55:20;;;;;;;21.60;9.50;;;11.20;99.90;;;;;;5035734;28;20195;-48
2022/10/13 08:57:47;;;;;;;11.60;8.43;;;11.30;99.90;;;;;;5016372;28;20579;-45
2022/10/13 09:00:17;;;;;;;15.63;8.83;;;11.40;99.90;;;;;;5031279;28;20222;-45
2022/10/13 09:02:50;;;;;;;18.13;8.93;;;11.50;99.90;;;;;;5030416;28;20564;-46
2022/10/13 09:05:27;;;;;;;13.90;10.00;;;11.50;99.90;;;;;;5033622;28;20203;-45
2022/10/13 09:08:11;;;;;;;18.70;9.23;;;11.70;99.90;;;;;;5029153;28;20222;-43
2022/10/13 09:10:46;;;;;;;23.50;9.67;;;11.80;99.90;;;;;;5039589;28;20325;-43
2022/10/13 09:13:17;;;;;;;20.20;10.30;;;11.90;99.90;;;;;;5016351;28;20211;-45
2022/10/13 09:15:46;;;;;;;14.67;9.50;;;11.90;99.90;;;;;;5031075;28;20207;-45
2022/10/13 09:18:14;;;;;;;16.07;8.97;;;12.00;99.90;;;;;;5032746;28;20308;-43
2022/10/13 09:20:41;;;;;;;15.23;9.50;;;12.00;99.90;;;;;;5039543;28;20230;-47
2022/10/13 09:23:18;;;;;;;20.00;9.63;;;12.00;99.90;;;;;;5037709;28;20218;-42
2022/10/13 09:25:48;;;;;;;21.03;10.53;;;12.10;99.90;;;;;;5041275;28;20198;-44
2022/10/13 09:28:19;;;;;;;16.30;10.37;;;12.10;99.90;;;;;;5026886;28;20222;-44
2022/10/13 09:30:47;;;;;;;18.30;10.97;;;12.20;99.90;;;;;;5035631;28;20286;-44
2022/10/13 09:33:21;;;;;;;19.97;10.87;;;12.20;99.90;;;;;;5041726;28;20207;-45
2022/10/13 09:36:06;;;;;;;17.43;10.20;;;12.30;99.90;;;;;;5034757;28;20294;-42
2022/10/13 09:38:35;;;;;;;16.73;10.80;;;12.30;99.90;;;;;;5033853;28;20222;-47
2022/10/13 09:41:04;;;;;;;24.67;10.73;;;12.40;99.90;;;;;;5038552;28;20222;-46
2022/10/13 09:43:37;;;;;;;16.40;11.07;;;12.40;99.90;;;;;;5037321;28;20289;-47
2022/10/13 09:46:12;;;;;;;17.87;10.13;;;12.50;99.90;;;;;;5018966;28;20207;-44
2022/10/13 09:48:41;;;;;;;22.53;10.83;;;12.50;99.90;;;;;;5037714;28;20818;-43
2022/10/13 09:51:34;;;;;;;17.70;10.80;;;12.60;99.90;;;;;;5035078;28;20203;-43
2022/10/13 09:54:26;;;;;;;19.00;10.43;;;12.70;99.90;;;;;;5040351;28;20296;-46
2022/10/13 09:56:58;;;;;;;21.07;10.83;;;12.80;99.90;;;;;;5036060;28;21029;-45
2022/10/13 09:59:33;;;;;;;19.23;10.97;;;12.90;99.90;;;;;;5040182;28;20345;-43
2022/10/13 10:02:13;;;;;;;19.07;11.00;;;12.90;99.90;;;;;;5023585;28;21796;-43
2022/10/13 10:04:42;;;;;;;20.90;11.23;;;12.90;99.90;;;;;;5037038;28;20203;-43
2022/10/13 10:07:12;;;;;;;20.20;11.03;;;13.00;99.90;;;;;;5038831;28;20298;-44
2022/10/13 10:09:44;;;;;;;13.97;11.00;;;13.10;99.90;;;;;;5032312;28;20608;-45
2022/10/13 10:12:15;;;;;;;16.47;10.97;;;13.10;99.90;;;;;;5036240;28;20199;-47
2022/10/13 10:14:43;;;;;;;17.90;11.40;;;13.10;99.90;;;;;;5031168;28;20191;-47
2022/10/13 10:17:19;;;;;;;20.57;11.57;;;13.10;99.90;;;;;;5031601;28;20204;-42
2022/10/13 10:19:58;;;;;;;21.57;11.10;;;13.20;99.90;;;;;;5034043;28;20578;-45
2022/10/13 10:22:35;;;;;;;21.27;11.37;;;13.20;99.90;;;;;;5035325;28;20199;-44
2022/10/13 10:25:18;;;;;;;17.17;11.13;;;13.30;99.90;;;;;;5034207;28;20212;-44
2022/10/13 10:27:56;;;;;;;20.70;11.73;;;13.30;99.90;;;;;;5036723;28;20183;-43
2022/10/13 10:30:24;;;;;;;17.83;11.20;;;13.30;99.90;;;;;;5030006;28;20223;-43
2022/10/13 10:32:55;;;;;;;19.70;11.63;;;13.30;99.90;;;;;;5031803;28;20533;-45
2022/10/13 10:35:38;;;;;;;15.73;10.50;;;13.30;99.90;;;;;;5037720;28;20265;-44
2022/10/13 10:38:20;;;;;;;17.67;10.50;;;13.40;99.90;;;;;;5038441;28;20260;-44
2022/10/13 10:40:58;;;;;;;21.10;10.47;;;13.40;99.90;;;;;;5025253;28;20223;-45
2022/10/13 10:43:49;;;;;;;20.10;11.50;;;13.50;99.90;;;;;;5037103;28;20306;-44
2022/10/13 10:46:19;;;;;;;16.40;10.90;;;13.50;99.90;;;;;;5044542;28;20202;-44
2022/10/13 10:49:17;;;;;;;17.63;11.20;;;13.60;99.90;;;;;;5036929;28;20797;-44
2022/10/13 10:51:45;;;;;;;17.43;11.23;;;13.60;99.90;;;;;;5034129;28;20932;-44
2022/10/13 10:54:23;;;;;;;20.03;11.13;;;13.60;99.90;;;;;;5039431;28;20212;-44
2022/10/13 10:56:55;;;;;;;18.13;11.23;;;13.70;99.90;;;;;;5036756;28;20195;-45
2022/10/13 10:59:31;;;;;;;16.37;11.07;;;13.70;99.90;;;;;;5035639;28;20215;-43
2022/10/13 11:02:12;;;;;;;18.77;9.97;;;13.70;99.90;;;;;;5029491;28;20203;-45
2022/10/13 11:04:41;;;;;;;24.77;11.60;;;13.80;99.90;;;;;;5029154;28;20326;-43
2022/10/13 11:07:37;;;;;;;20.70;11.73;;;13.80;99.90;;;;;;5044019;28;20206;-42
2022/10/13 11:10:20;;;;;;;19.47;10.70;;;13.90;99.90;;;;;;5030358;28;20249;-45
2022/10/13 11:13:21;;;;;;;18.13;10.50;;;14.00;99.90;;;;;;5034494;28;20257;-42
2022/10/13 11:15:47;;;;;;;17.90;11.53;;;14.10;99.90;;;;;;5031735;28;20191;-43
2022/10/13 11:18:52;;;;;;;16.30;9.90;;;14.20;99.90;;;;;;5020263;28;20219;-43
2022/10/13 11:21:20;;;;;;;15.03;10.27;;;14.30;99.90;;;;;;5022847;28;20215;-45
2022/10/13 11:23:49;;;;;;;17.07;10.20;;;14.50;99.90;;;;;;5042010;28;20199;-43
2022/10/13 11:26:30;;;;;;;16.03;9.93;;;14.70;99.90;;;;;;5025763;28;20194;-43
2022/10/13 11:28:58;;;;;;;15.83;10.20;;;14.80;99.90;;;;;;5035374;28;20195;-44
2022/10/13 11:31:31;;;;;;;13.77;9.97;;;14.90;99.90;;;;;;5038805;28;20613;-43
2022/10/13 11:34:00;;;;;;;16.13;10.37;;;15.00;99.90;;;;;;5025933;28;20684;-42
2022/10/13 11:36:49;;;;;;;14.70;10.07;;;15.00;99.90;;;;;;5032097;28;20199;-43
2022/10/13 11:40:00;;;;;;;14.87;10.37;;;15.10;99.90;;;;;;5030376;28;20215;-45
2022/10/13 11:43:04;;;;;;;13.63;9.47;;;15.30;99.90;;;;;;5039726;28;20355;-43
2022/10/13 11:46:02;;;;;;;14.23;10.97;;;15.40;99.90;;;;;;5041066;28;20199;-42
2022/10/13 11:49:05;;;;;;;21.87;11.30;;;15.40;99.90;;;;;;5026837;28;20224;-44
2022/10/13 11:51:45;;;;;;;18.20;10.27;;;15.50;99.90;;;;;;5031983;28;20225;-43
2022/10/13 11:54:22;;;;;;;16.07;10.37;;;15.50;99.90;;;;;;5031765;28;20207;-43
2022/10/13 11:56:52;;;;;;;14.10;9.57;;;15.50;99.90;;;;;;5030291;28;20287;-42
2022/10/13 11:59:25;;;;;;;15.60;10.70;;;15.50;99.90;;;;;;5025792;28;20234;-44
2022/10/13 12:01:57;;;;;;;17.37;9.90;;;15.50;99.90;;;;;;5033983;28;20995;-42
2022/10/13 12:04:27;;;;;;;14.13;9.33;;;15.50;99.90;;;;;;5020556;28;20231;-42
2022/10/13 12:06:59;;;;;;;15.10;9.80;;;15.50;99.90;;;;;;5029228;28;20628;-44
2022/10/13 12:09:27;;;;;;;14.43;9.30;;;15.40;99.90;;;;;;5038869;28;20243;-43
2022/10/13 12:12:01;;;;;;;15.20;9.33;;;15.40;99.90;;;;;;5029817;28;20211;-42
2022/10/13 12:14:35;;;;;;;14.83;8.97;;;15.40;99.90;;;;;;5039888;28;20294;-44
2022/10/13 12:17:02;;;;;;;15.37;8.97;;;15.50;99.90;;;;;;5036754;28;20606;-43
2022/10/13 12:19:30;;;;;;;13.30;9.43;;;15.50;99.90;;;;;;5015930;28;20642;-44
2022/10/13 12:21:59;;;;;;;15.40;9.90;;;15.40;99.90;;;;;;5036092;28;20261;-43
2022/10/13 12:24:28;;;;;;;13.80;9.57;;;15.30;99.90;;;;;;5039943;28;20276;-42
2022/10/13 12:26:56;;;;;;;14.67;8.97;;;15.30;99.90;;;;;;5033845;28;20628;-45
2022/10/13 12:29:27;;;;;;;12.23;9.97;;;15.30;99.90;;;;;;5042469;28;20215;-42
2022/10/13 12:31:57;;;;;;;12.00;9.20;;;15.30;99.90;;;;;;5040022;28;20249;-43
2022/10/13 12:34:26;;;;;;;14.37;9.53;;;15.30;99.90;;;;;;5036192;28;20900;-43
2022/10/13 12:36:59;;;;;;;20.93;10.60;;;15.30;99.90;;;;;;5027926;28;20635;-46
2022/10/13 12:39:29;;;;;;;13.63;8.90;;;15.30;99.90;;;;;;5033049;28;20572;-47
2022/10/13 12:41:57;;;;;;;16.83;9.23;;;15.30;99.90;;;;;;5028631;28;20215;-43
2022/10/13 12:44:26;;;;;;;18.70;9.63;;;15.40;99.90;;;;;;5034822;28;20905;-42
2022/10/13 12:46:57;;;;;;;13.27;9.60;;;15.40;99.90;;;;;;5037546;28;20576;-44
2022/10/13 12:49:26;;;;;;;15.57;10.00;;;15.40;99.90;;;;;;5034821;28;20219;-43
2022/10/13 12:51:57;;;;;;;15.30;9.73;;;15.40;99.90;;;;;;5023728;28;20677;-42
2022/10/13 12:54:28;;;;;;;15.73;9.40;;;15.50;99.90;;;;;;5030903;28;20226;-45
2022/10/13 12:56:58;;;;;;;17.23;10.00;;;15.50;99.90;;;;;;5033681;28;20203;-43
2022/10/13 12:59:28;;;;;;;14.00;9.27;;;15.50;99.90;;;;;;5037675;28;20212;-42
2022/10/13 13:01:59;;;;;;;13.00;9.67;;;15.50;99.90;;;;;;5039438;28;20192;-43
2022/10/13 13:04:38;;;;;;;17.37;9.80;;;15.60;99.90;;;;;;5027700;28;20195;-44